createdAt,value
2023-04-01T00:02:06.899Z,89.57
2023-04-01T00:04:50.087Z,90.68
2023-04-01T00:07:23.444Z,91.58
2023-04-01T00:09:57.558Z,91.16
2023-04-01T00:12:30.489Z,91.47
2023-04-01T00:15:01.967Z,91.70
2023-04-01T00:17:35.050Z,92.07
2023-04-01T00:20:06.994Z,92.07
2023-04-01T00:22:39.873Z,93.96
2023-04-01T00:25:13.173Z,93.37
2023-04-01T00:27:46.187Z,95.86
2023-04-01T00:30:20.136Z,98.22
2023-04-01T00:32:54.058Z,99.64
2023-04-01T00:35:22.266Z,100.00
2023-04-01T00:37:50.631Z,100.00
2023-04-01T00:40:39.232Z,100.00
2023-04-01T00:43:22.936Z,100.00
2023-04-01T00:45:54.305Z,100.00
2023-04-01T00:48:25.103Z,100.00
2023-04-01T00:51:25.873Z,100.00
2023-04-01T00:53:57.991Z,100.00
2023-04-01T00:56:36.910Z,100.00
2023-04-01T00:59:13.590Z,100.00
2023-04-01T01:01:47.185Z,100.00
2023-04-01T01:04:36.218Z,100.00
2023-04-01T01:07:22.598Z,100.00
2023-04-01T01:10:08.994Z,100.00
2023-04-01T01:12:48.682Z,100.00
2023-04-01T01:15:34.841Z,100.00
2023-04-01T01:18:17.093Z,100.00
2023-04-01T01:21:13.323Z,100.00
2023-04-01T01:24:14.876Z,100.00
2023-04-01T01:26:43.205Z,100.00
2023-04-01T01:30:09.705Z,100.00
2023-04-01T01:33:15.181Z,100.00
2023-04-01T01:35:48.189Z,100.00
2023-04-01T01:38:18.551Z,100.00
2023-04-01T01:40:58.955Z,100.00
2023-04-01T01:43:33.188Z,100.00
2023-04-01T01:46:03.252Z,100.00
2023-04-01T01:48:37.153Z,100.00
2023-04-01T01:51:07.679Z,100.00
2023-04-01T01:53:40.545Z,100.00
2023-04-01T01:56:09.488Z,100.00
2023-04-01T01:58:56.398Z,100.00
2023-04-01T02:01:29.807Z,100.00
2023-04-01T02:03:57.949Z,100.00
2023-04-01T02:06:28.399Z,100.00
2023-04-01T02:08:59.228Z,100.00
2023-04-01T02:11:56.146Z,100.00
2023-04-01T02:14:56.611Z,100.00
2023-04-01T02:17:32.348Z,100.00
2023-04-01T02:20:23.445Z,100.00
2023-04-01T02:22:53.977Z,100.00
2023-04-01T02:25:41.428Z,100.00
2023-04-01T02:28:09.611Z,100.00
2023-04-01T02:30:45.568Z,100.00
2023-04-01T02:33:14.094Z,100.00
2023-04-01T02:35:46.812Z,100.00
2023-04-01T02:38:17.970Z,100.00
2023-04-01T02:41:00.271Z,100.00
2023-04-01T02:43:28.715Z,100.00
2023-04-01T02:46:09.152Z,100.00
2023-04-01T02:48:49.527Z,100.00
2023-04-01T02:51:22.830Z,100.00
2023-04-01T02:53:55.658Z,100.00
2023-04-01T02:56:29.550Z,100.00
2023-04-01T02:59:00.732Z,100.00
2023-04-01T03:01:33.999Z,100.00
2023-04-01T03:04:05.385Z,100.00
2023-04-01T03:06:41.056Z,100.00
2023-04-01T03:09:09.255Z,100.00
2023-04-01T03:11:38.086Z,100.00
2023-04-01T03:14:12.047Z,100.00
2023-04-01T03:16:46.237Z,100.00
2023-04-01T03:19:14.428Z,100.00
2023-04-01T03:21:47.423Z,100.00
2023-04-01T03:24:20.258Z,100.00
2023-04-01T03:26:53.400Z,100.00
2023-04-01T03:29:28.686Z,100.00
2023-04-01T03:32:02.244Z,100.00
2023-04-01T03:34:35.482Z,100.00
2023-04-01T03:37:04.620Z,100.00
2023-04-01T03:39:57.843Z,100.00
2023-04-01T03:42:33.272Z,100.00
2023-04-01T03:45:14.744Z,100.00
2023-04-01T03:47:57.817Z,100.00
2023-04-01T03:50:25.909Z,100.00
2023-04-01T03:53:04.525Z,100.00
2023-04-01T03:55:37.375Z,99.78
2023-04-01T03:58:10.532Z,99.94
2023-04-01T04:00:38.564Z,99.14
2023-04-01T04:03:11.853Z,98.97
2023-04-01T04:05:40.128Z,98.96
2023-04-01T04:08:12.724Z,98.51
2023-04-01T04:10:40.994Z,97.40
2023-04-01T04:13:16.919Z,99.13
2023-04-01T04:15:45.283Z,97.82
2023-04-01T04:18:27.271Z,98.10
2023-04-01T04:21:01.037Z,96.48
2023-04-01T04:23:33.923Z,96.99
2023-04-01T04:26:14.187Z,96.22
2023-04-01T04:28:48.400Z,97.36
2023-04-01T04:31:25.193Z,95.67
2023-04-01T04:33:53.706Z,96.33
2023-04-01T04:36:22.322Z,97.00
2023-04-01T04:39:15.824Z,96.88
2023-04-01T04:41:44.239Z,97.30
2023-04-01T04:44:12.568Z,97.67
2023-04-01T04:46:41.712Z,96.47
2023-04-01T04:49:10.008Z,98.08
2023-04-01T04:51:42.927Z,98.58
2023-04-01T04:54:16.291Z,99.21
2023-04-01T04:56:58.741Z,100.00
2023-04-01T04:59:32.617Z,100.00
2023-04-01T05:02:22.216Z,100.00
2023-04-01T05:04:53.390Z,100.00
2023-04-01T05:07:26.300Z,100.00
2023-04-01T05:09:59.964Z,100.00
2023-04-01T05:12:41.924Z,100.00
2023-04-01T05:15:20.979Z,100.00
2023-04-01T05:17:54.085Z,100.00
2023-04-01T05:20:28.085Z,100.00
2023-04-01T05:23:09.929Z,100.00
2023-04-01T05:25:40.590Z,100.00
2023-04-01T05:28:08.983Z,100.00
2023-04-01T05:30:44.070Z,100.00
2023-04-01T05:33:17.031Z,100.00
2023-04-01T05:35:47.962Z,100.00
2023-04-01T05:38:16.391Z,100.00
2023-04-01T05:40:49.997Z,100.00
2023-04-01T05:43:30.393Z,100.00
2023-04-01T05:46:02.193Z,100.00
2023-04-01T05:48:30.539Z,100.00
2023-04-01T05:51:03.286Z,100.00
2023-04-01T05:53:31.782Z,100.00
2023-04-01T05:56:01.081Z,100.00
2023-04-01T05:58:34.356Z,100.00
2023-04-01T06:01:10.254Z,98.74
2023-04-01T06:04:13.517Z,99.00
2023-04-01T06:07:04.320Z,100.00
2023-04-01T06:09:38.405Z,99.07
2023-04-01T06:12:20.532Z,98.62
2023-04-01T06:15:00.858Z,97.22
2023-04-01T06:18:04.679Z,96.61
2023-04-01T06:20:44.819Z,96.63
2023-04-01T06:23:26.666Z,96.29
2023-04-01T06:26:43.281Z,97.23
2023-04-01T06:29:42.167Z,96.76
2023-04-01T06:32:38.247Z,97.96
2023-04-01T06:35:55.525Z,97.51
2023-04-01T06:38:56.111Z,96.05
2023-04-01T06:41:45.024Z,94.13
2023-04-01T06:44:51.909Z,92.46
2023-04-01T06:48:00.742Z,92.62
2023-04-01T06:50:40.515Z,91.95
2023-04-01T06:53:43.836Z,93.54
2023-04-01T06:56:16.563Z,93.37
2023-04-01T06:58:52.508Z,93.10
2023-04-01T07:01:48.615Z,94.43
2023-04-01T07:04:28.628Z,94.73
2023-04-01T07:07:11.571Z,94.28
2023-04-01T07:09:46.007Z,94.89
2023-04-01T07:12:53.137Z,93.46
2023-04-01T07:15:57.984Z,93.65
2023-04-01T07:18:45.275Z,91.16
2023-04-01T07:21:23.208Z,91.67
2023-04-01T07:23:56.011Z,91.43
2023-04-01T07:26:26.073Z,89.89
2023-04-01T07:29:19.728Z,89.85
2023-04-01T07:32:23.516Z,89.23
2023-04-01T07:34:58.764Z,90.32
2023-04-01T07:37:38.930Z,87.51
2023-04-01T07:40:13.821Z,90.08
2023-04-01T07:43:05.594Z,90.80
2023-04-01T07:46:10.954Z,89.27
2023-04-01T07:48:53.738Z,88.76
2023-04-01T07:54:45.185Z,88.40
2023-04-01T07:57:31.581Z,87.30
2023-04-01T08:00:07.005Z,88.03
2023-04-01T08:03:00.127Z,87.19
2023-04-01T08:05:36.726Z,87.26
2023-04-01T08:08:41.478Z,87.59
2023-04-01T08:11:24.800Z,88.35
2023-04-01T08:14:06.837Z,87.58
2023-04-01T08:17:01.144Z,86.34
2023-04-01T08:19:48.061Z,87.86
2023-04-01T08:22:38.529Z,87.78
2023-04-01T08:25:27.693Z,90.59
2023-04-01T08:28:18.771Z,87.89
2023-04-01T08:31:01.815Z,89.92
2023-04-01T08:33:37.437Z,87.95
2023-04-01T08:36:13.975Z,85.45
2023-04-01T08:39:02.135Z,87.90
2023-04-01T08:41:54.917Z,86.42
2023-04-01T08:44:39.574Z,86.96
2023-04-01T08:47:25.579Z,88.03
2023-04-01T08:50:18.551Z,89.33
2023-04-01T08:52:58.151Z,90.05
2023-04-01T08:55:48.351Z,90.32
2023-04-01T08:58:44.391Z,91.45
2023-04-01T09:01:49.403Z,91.39
2023-04-01T09:04:35.584Z,91.82
2023-04-01T09:07:10.946Z,91.47
2023-04-01T09:10:19.583Z,91.36
2023-04-01T09:13:02.723Z,91.87
2023-04-01T09:15:58.131Z,91.97
2023-04-01T09:18:29.147Z,91.92
2023-04-01T09:21:12.621Z,92.19
2023-04-01T09:24:09.008Z,91.71
2023-04-01T09:26:49.690Z,94.10
2023-04-01T09:29:28.752Z,95.10
2023-04-01T09:32:25.949Z,94.77
2023-04-01T09:35:08.618Z,94.43
2023-04-01T09:37:38.849Z,94.80
2023-04-01T09:40:51.222Z,93.76
2023-04-01T09:43:45.455Z,94.38
2023-04-01T09:46:26.198Z,95.12
2023-04-01T09:49:26.253Z,95.42
2023-04-01T09:52:20.610Z,94.28
2023-04-01T09:55:12.387Z,95.40
2023-04-01T09:58:18.618Z,95.46
2023-04-01T10:01:08.049Z,93.19
2023-04-01T10:03:40.524Z,93.29
2023-04-01T10:06:26.675Z,92.60
2023-04-01T10:09:30.041Z,92.37
2023-04-01T10:12:36.052Z,91.37
2023-04-01T10:15:35.409Z,91.50
2023-04-01T10:18:11.987Z,91.90
2023-04-01T10:20:56.730Z,90.47
2023-04-01T10:23:52.977Z,91.04
2023-04-01T10:26:48.968Z,91.25
2023-04-01T10:29:35.362Z,90.17
2023-04-01T10:32:15.219Z,88.52
2023-04-01T10:35:11.026Z,89.64
2023-04-01T10:38:39.798Z,89.40
2023-04-01T10:41:46.398Z,90.01
2023-04-01T10:44:56.029Z,90.38
2023-04-01T10:47:50.324Z,89.98
2023-04-01T10:50:26.681Z,89.02
2023-04-01T10:53:00.521Z,88.36
2023-04-01T10:58:57.100Z,87.33
2023-04-01T11:01:50.634Z,86.57
2023-04-01T11:04:50.416Z,86.59
2023-04-01T11:07:30.423Z,85.73
2023-04-01T11:10:29.321Z,87.39
2023-04-01T11:13:12.697Z,85.86
2023-04-01T11:15:54.161Z,85.75
2023-04-01T11:18:40.854Z,83.24
2023-04-01T11:21:36.632Z,84.12
2023-04-01T11:24:23.144Z,82.87
2023-04-01T11:27:19.563Z,82.64
2023-04-01T11:30:00.167Z,81.60
2023-04-01T11:32:40.231Z,81.28
2023-04-01T11:35:42.499Z,79.56
2023-04-01T11:38:35.263Z,79.55
2023-04-01T11:41:31.167Z,78.39
2023-04-01T11:44:21.000Z,78.55
2023-04-01T11:47:10.352Z,80.26
2023-04-01T11:49:47.515Z,78.57
2023-04-01T11:52:48.966Z,78.62
2023-04-01T11:55:44.289Z,79.06
2023-04-01T11:58:35.043Z,78.62
2023-04-01T12:01:27.742Z,78.93
2023-04-01T12:04:17.535Z,77.09
2023-04-01T12:07:03.728Z,77.68
2023-04-01T12:09:56.799Z,77.05
2023-04-01T12:12:58.066Z,76.51
2023-04-01T12:15:55.306Z,76.81
2023-04-01T12:18:44.473Z,75.13
2023-04-01T12:21:28.904Z,75.85
2023-04-01T12:24:27.531Z,76.69
2023-04-01T12:27:21.693Z,75.69
2023-04-01T12:30:11.460Z,75.49
2023-04-01T12:33:09.471Z,76.71
2023-04-01T12:36:22.052Z,76.11
2023-04-01T12:39:13.144Z,78.06
2023-04-01T12:42:18.175Z,81.35
2023-04-01T12:45:23.137Z,82.61
2023-04-01T12:48:14.750Z,85.86
2023-04-01T12:50:54.598Z,84.97
2023-04-01T12:53:36.382Z,83.81
2023-04-01T12:56:17.254Z,81.49
2023-04-01T12:59:06.488Z,80.67
2023-04-01T13:02:02.624Z,81.96
2023-04-01T13:04:48.304Z,80.26
2023-04-01T13:07:24.999Z,82.00
2023-04-01T13:10:20.095Z,81.66
2023-04-01T13:13:25.824Z,83.47
2023-04-01T13:16:11.128Z,83.93
2023-04-01T13:18:54.510Z,85.81
2023-04-01T13:21:34.796Z,85.83
2023-04-01T13:24:21.006Z,83.99
2023-04-01T13:27:07.372Z,85.67
2023-04-01T13:29:43.912Z,84.57
2023-04-01T13:32:42.965Z,85.37
2023-04-01T13:35:27.363Z,85.82
2023-04-01T13:38:35.860Z,83.94
2023-04-01T13:41:27.892Z,84.23
2023-04-01T13:44:21.712Z,84.54
2023-04-01T13:47:20.443Z,83.60
2023-04-01T13:50:06.686Z,83.10
2023-04-01T13:53:02.001Z,83.97
2023-04-01T13:55:36.396Z,82.25
2023-04-01T13:58:25.200Z,82.21
2023-04-01T14:01:02.661Z,80.84
2023-04-01T14:03:45.547Z,80.57
2023-04-01T14:06:29.420Z,81.27
2023-04-01T14:09:12.413Z,81.36
2023-04-01T14:11:54.883Z,81.87
2023-04-01T14:14:53.935Z,80.90
2023-04-01T14:17:40.091Z,85.29
2023-04-01T14:20:43.185Z,84.97
2023-04-01T14:24:02.442Z,91.75
2023-04-01T14:27:23.911Z,97.69
2023-04-01T14:30:19.937Z,98.06
2023-04-01T14:33:02.898Z,95.58
2023-04-01T14:35:44.802Z,96.68
2023-04-01T14:38:27.496Z,100.00
2023-04-01T14:41:18.278Z,98.46
2023-04-01T14:44:18.778Z,98.71
2023-04-01T14:47:02.709Z,98.54
2023-04-01T14:49:38.950Z,89.07
2023-04-01T14:52:36.738Z,85.18
2023-04-01T14:55:27.193Z,87.81
2023-04-01T14:58:10.663Z,90.41
2023-04-01T15:01:09.462Z,86.96
2023-04-01T15:03:43.804Z,85.11
2023-04-01T15:06:26.670Z,87.67
2023-04-01T15:08:57.862Z,87.86
2023-04-01T15:11:42.472Z,89.26
2023-04-01T15:14:22.609Z,86.79
2023-04-01T15:17:13.074Z,87.78
2023-04-01T15:19:56.345Z,86.33
2023-04-01T15:22:32.082Z,85.39
2023-04-01T15:25:25.318Z,84.85
2023-04-01T15:28:14.829Z,83.13
2023-04-01T15:31:25.541Z,84.90
2023-04-01T15:34:25.493Z,87.40
2023-04-01T15:37:17.273Z,88.70
2023-04-01T15:40:00.351Z,88.63
2023-04-01T15:43:02.123Z,88.64
2023-04-01T15:46:03.604Z,88.32
2023-04-01T15:49:05.653Z,87.51
2023-04-01T15:51:51.354Z,88.21
2023-04-01T15:54:44.636Z,89.35
2023-04-01T15:57:43.125Z,89.16
2023-04-01T16:00:32.649Z,87.97
2023-04-01T16:03:42.987Z,87.89
2023-04-01T16:06:17.329Z,88.37
2023-04-01T16:09:14.216Z,87.88
2023-04-01T16:11:48.311Z,86.40
2023-04-01T16:14:38.525Z,87.36
2023-04-01T16:17:31.498Z,87.00
2023-04-01T16:20:48.502Z,86.20
2023-04-01T16:23:29.882Z,86.22
2023-04-01T16:26:12.520Z,84.80
2023-04-01T16:29:27.099Z,84.10
2023-04-01T16:32:00.448Z,84.94
2023-04-01T16:34:57.658Z,84.34
2023-04-01T16:37:50.692Z,84.68
2023-04-01T16:40:37.529Z,86.56
2023-04-01T16:43:11.684Z,85.69
2023-04-01T16:46:00.151Z,84.13
2023-04-01T16:48:56.448Z,82.63
2023-04-01T16:51:48.983Z,83.88
2023-04-01T16:54:32.113Z,83.64
2023-04-01T16:57:26.886Z,84.19
2023-04-01T17:00:29.965Z,85.71
2023-04-01T17:03:19.722Z,85.91
2023-04-01T17:06:00.784Z,85.71
2023-04-01T17:08:57.998Z,85.58
2023-04-01T17:12:01.847Z,86.42
2023-04-01T17:14:51.627Z,86.95
2023-04-01T17:18:04.796Z,87.04
2023-04-01T17:20:49.064Z,87.11
2023-04-01T17:23:42.134Z,87.81
2023-04-01T17:26:41.365Z,88.67
2023-04-01T17:29:20.928Z,88.39
2023-04-01T17:31:56.263Z,88.81
2023-04-01T17:34:45.285Z,88.95
2023-04-01T17:37:44.471Z,90.05
2023-04-01T17:40:36.967Z,89.91
2023-04-01T17:43:38.675Z,89.72
2023-04-01T17:47:12.590Z,89.39
2023-04-01T17:50:15.149Z,90.12
2023-04-01T17:53:06.988Z,89.84
2023-04-01T17:55:53.487Z,91.07
2023-04-01T17:58:38.410Z,90.11
2023-04-01T18:01:34.038Z,89.37
2023-04-01T18:04:04.146Z,89.21
2023-04-01T18:07:02.878Z,88.43
2023-04-01T18:09:52.827Z,88.81
2023-04-01T18:13:06.275Z,88.88
2023-04-01T18:16:05.977Z,88.64
2023-04-01T18:19:05.047Z,88.67
2023-04-01T18:21:50.986Z,89.44
2023-04-01T18:24:27.985Z,88.94
2023-04-01T18:27:20.722Z,89.27
2023-04-01T18:30:01.513Z,89.04
2023-04-01T18:32:52.703Z,89.58
2023-04-01T18:35:30.679Z,90.03
2023-04-01T18:38:37.712Z,89.93
2023-04-01T18:41:18.179Z,90.18
2023-04-01T18:44:19.932Z,90.14
2023-04-01T18:47:18.315Z,90.41
2023-04-01T18:50:01.703Z,90.15
2023-04-01T18:52:44.334Z,90.31
2023-04-01T18:55:32.542Z,90.60
2023-04-01T18:58:25.993Z,91.30
2023-04-01T19:01:13.140Z,91.15
2023-04-01T19:04:09.977Z,90.77
2023-04-01T19:07:03.055Z,91.07
2023-04-01T19:09:52.286Z,91.62
2023-04-01T19:12:49.341Z,91.50
2023-04-01T19:15:31.406Z,91.51
2023-04-01T19:18:18.323Z,91.43
2023-04-01T19:21:15.024Z,91.81
2023-04-01T19:26:52.931Z,90.65
2023-04-01T19:29:38.937Z,90.34
2023-04-01T19:32:55.868Z,90.10
2023-04-01T19:35:57.908Z,90.02
2023-04-01T19:39:05.000Z,90.17
2023-04-01T19:41:57.925Z,90.75
2023-04-01T19:44:58.542Z,90.15
2023-04-01T19:47:51.623Z,90.40
2023-04-01T19:50:50.052Z,90.79
2023-04-01T19:53:36.923Z,91.21
2023-04-01T19:56:26.544Z,91.39
2023-04-01T19:59:29.359Z,91.60
2023-04-01T20:02:37.227Z,91.34
2023-04-01T20:05:53.292Z,91.86
2023-04-01T20:09:01.128Z,92.22
2023-04-01T20:12:07.858Z,93.02
2023-04-01T20:14:58.879Z,93.17
2023-04-01T20:17:29.268Z,92.90
2023-04-01T20:20:17.988Z,92.46
2023-04-01T20:22:51.450Z,92.43
2023-04-01T20:25:46.250Z,93.12
2023-04-01T20:28:40.739Z,92.32
2023-04-01T20:31:27.471Z,92.25
2023-04-01T20:34:13.644Z,92.49
2023-04-01T20:40:49.258Z,93.23
2023-04-01T20:43:36.306Z,93.31
2023-04-01T20:46:19.360Z,92.90
2023-04-01T20:49:06.535Z,93.97
2023-04-01T20:51:47.736Z,95.72
2023-04-01T20:54:40.877Z,94.88
2023-04-01T20:57:24.682Z,95.68
2023-04-01T21:00:36.069Z,96.76
2023-04-01T21:07:13.492Z,96.85
2023-04-01T21:10:10.513Z,97.52
2023-04-01T21:13:06.492Z,97.85
2023-04-01T21:16:07.797Z,97.43
2023-04-01T21:18:57.452Z,97.13
2023-04-01T21:21:54.130Z,96.37
2023-04-01T21:25:09.099Z,96.29
2023-04-01T21:34:52.664Z,95.97
2023-04-01T21:37:47.437Z,96.54
2023-04-01T21:40:36.997Z,96.63
2023-04-01T21:43:42.494Z,96.52
2023-04-01T21:47:02.869Z,97.17
2023-04-01T21:49:49.501Z,97.52
2023-04-01T21:52:26.766Z,97.55
2023-04-01T21:55:31.859Z,97.74
2023-04-01T21:58:26.914Z,97.88
2023-04-01T22:01:18.640Z,98.70
2023-04-01T22:04:12.448Z,98.34
2023-04-01T22:06:46.458Z,97.93
2023-04-01T22:09:47.334Z,98.47
2023-04-01T22:12:29.478Z,97.48
2023-04-01T22:15:47.327Z,97.16
2023-04-01T22:19:00.531Z,96.93
2023-04-01T22:21:54.437Z,97.47
2023-04-01T22:24:38.998Z,97.42
2023-04-01T22:27:33.000Z,96.77
2023-04-01T22:30:26.041Z,97.23
2023-04-01T22:33:01.019Z,97.04
2023-04-01T22:35:54.136Z,96.69
2023-04-01T22:38:55.839Z,96.27
2023-04-01T22:42:00.737Z,95.89
2023-04-01T22:45:35.667Z,95.89
2023-04-01T22:48:21.944Z,94.24
2023-04-01T22:51:18.368Z,94.61
2023-04-01T22:54:11.724Z,93.19
2023-04-01T22:56:45.956Z,92.90
2023-04-01T22:59:47.089Z,92.52
2023-04-01T23:02:25.339Z,92.54
2023-04-01T23:04:58.973Z,92.42
2023-04-01T23:07:48.759Z,92.23
2023-04-01T23:10:40.026Z,92.38
2023-04-01T23:13:13.643Z,92.36
2023-04-01T23:15:46.657Z,93.02
2023-04-01T23:18:49.275Z,92.60
2023-04-01T23:21:40.826Z,92.25
2023-04-01T23:24:29.949Z,91.80
2023-04-01T23:27:22.370Z,91.54
2023-04-01T23:29:51.761Z,91.47
2023-04-01T23:32:27.200Z,91.61
2023-04-01T23:35:00.451Z,91.34
2023-04-01T23:37:33.756Z,91.49
2023-04-01T23:40:08.273Z,91.30
2023-04-01T23:42:47.280Z,91.03
2023-04-01T23:45:27.251Z,91.15
2023-04-01T23:48:10.807Z,91.58
2023-04-01T23:50:44.441Z,91.82
2023-04-01T23:53:31.834Z,92.21
2023-04-01T23:56:03.436Z,92.00
2023-04-01T23:58:50.583Z,91.79
